Terminal Aerodrome Forecast
Issued by NWS

Home | Current Version | Previous Version | Text Only | Print | Product List | Glossary Off
Versions: 1 2 3 4 5 6 7 8 9 10 11 12 13 14 15 16 17 18 19 20 21 22 23

142
FTUS43 KGRB 200939 AAC
TAFMTW
TAF AMD
KMTW 200939Z 2010/2106 01010KT P6SM SCT012 OVC035
      TEMPO 2010/2014 4SM -SHRA BKN012
     FM201600 03008G16KT P6SM SCT040 BKN080
     FM202200 04006KT P6SM SCT110
     FM210100 03004KT P6SM SCT250=

USA.gov is the U.S. government's official web portal to all federal, state and local government web resources and services.